Time;durP1;ratioP1;P1;durP2;ratioP2;P2;SDS_P1;SDS_P2;PMS_P1;PMS_P2;Temp;Humidity;BMP_temperature;BMP_pressure;BME280_temperature;BME280_humidity;BME280_pressure;Samples;Min_cycle;Max_cycle;Signal;HPM_P1;HPM_P2
2022/03/30 00:01:55;;;;;;;18.35;12.30;;;;;;;;;;5026618;28;20072;-63
2022/03/30 00:04:40;;;;;;;25.40;12.77;;;;;;;;;;5041041;28;20392;-61
2022/03/30 00:07:31;;;;;;;19.45;12.77;;;;;;;;;;5026226;28;20041;-61
2022/03/30 00:10:16;;;;;;;19.88;13.20;;;;;;;;;;5041306;28;20036;-67
2022/03/30 00:13:02;;;;;;;26.98;14.43;;;;;;;;;;5026743;28;20014;-62
2022/03/30 00:15:47;;;;;;;21.00;12.90;;;;;;;;;;5041456;28;20032;-63
2022/03/30 00:18:33;;;;;;;25.98;13.85;;;;;;;;;;5026127;28;20100;-63
2022/03/30 00:21:19;;;;;;;22.00;13.95;;;;;;;;;;5027582;28;20106;-66
2022/03/30 00:24:04;;;;;;;24.35;13.57;;;;;;;;;;5026945;28;20044;-61
2022/03/30 00:26:49;;;;;;;27.98;14.63;;;;;;;;;;5027213;28;20578;-60
2022/03/30 00:29:35;;;;;;;26.95;14.45;;;;;;;;;;5026671;28;20131;-61
2022/03/30 00:32:20;;;;;;;21.77;14.07;;;;;;;;;;5026470;28;20029;-61
2022/03/30 00:35:07;;;;;;;26.13;14.05;;;;;;;;;;5039343;28;20069;-60
2022/03/30 00:37:53;;;;;;;24.30;13.70;;;;;;;;;;5028878;28;20022;-60
2022/03/30 00:40:38;;;;;;;29.10;15.25;;;;;;;;;;5027400;28;20180;-60
2022/03/30 00:43:23;;;;;;;22.83;12.85;;;;;;;;;;5027368;28;20480;-60
2022/03/30 00:46:12;;;;;;;24.23;14.88;;;;;;;;;;5027268;28;20124;-68
2022/03/30 00:48:57;;;;;;;26.00;14.30;;;;;;;;;;5024366;28;20724;-68
2022/03/30 00:51:43;;;;;;;26.65;13.75;;;;;;;;;;5026813;28;20094;-68
2022/03/30 00:54:28;;;;;;;25.55;14.95;;;;;;;;;;5026466;28;20029;-67
2022/03/30 00:57:15;;;;;;;28.38;15.20;;;;;;;;;;5026885;28;20030;-68
2022/03/30 01:00:00;;;;;;;23.90;12.23;;;;;;;;;;5025679;28;20036;-68
2022/03/30 01:02:47;;;;;;;24.42;13.73;;;;;;;;;;5026757;28;20071;-60
2022/03/30 01:05:32;;;;;;;30.35;15.50;;;;;;;;;;5027448;28;20056;-63
2022/03/30 01:08:18;;;;;;;23.30;13.73;;;;;;;;;;5032564;28;20131;-62
2022/03/30 01:11:03;;;;;;;31.65;14.18;;;;;;;;;;5035137;28;20017;-62
2022/03/30 01:13:48;;;;;;;24.60;14.55;;;;;;;;;;5033420;28;20091;-60
2022/03/30 01:16:34;;;;;;;23.98;13.45;;;;;;;;;;5032898;28;20561;-61
2022/03/30 01:19:21;;;;;;;27.58;14.82;;;;;;;;;;5031922;28;20035;-65
2022/03/30 01:22:09;;;;;;;24.25;12.98;;;;;;;;;;5041863;28;20035;-67
2022/03/30 01:24:54;;;;;;;22.88;12.75;;;;;;;;;;5027231;28;20042;-64
2022/03/30 01:27:40;;;;;;;21.27;12.77;;;;;;;;;;5034097;28;20033;-65
2022/03/30 01:33:32;;;;;;;24.38;14.65;;;;;;;;;;5031903;28;20032;-62
2022/03/30 01:36:17;;;;;;;23.38;13.90;;;;;;;;;;5043686;28;20035;-65
2022/03/30 01:39:03;;;;;;;22.95;12.90;;;;;;;;;;5030416;28;20122;-62
2022/03/30 01:41:48;;;;;;;21.30;13.75;;;;;;;;;;5030815;28;20110;-68
2022/03/30 01:44:34;;;;;;;23.75;13.95;;;;;;;;;;5032414;28;20369;-67
2022/03/30 01:47:20;;;;;;;24.38;13.40;;;;;;;;;;5030830;28;20031;-69
2022/03/30 01:50:05;;;;;;;23.13;14.25;;;;;;;;;;5045289;28;20036;-68
2022/03/30 01:52:51;;;;;;;20.35;13.88;;;;;;;;;;5043538;28;20024;-70
2022/03/30 01:55:36;;;;;;;20.80;12.43;;;;;;;;;;5032838;28;20037;-61
2022/03/30 01:58:21;;;;;;;21.73;15.13;;;;;;;;;;5032393;28;20165;-68
2022/03/30 02:01:06;;;;;;;21.50;13.82;;;;;;;;;;5032285;28;20028;-62
2022/03/30 02:03:52;;;;;;;19.25;12.85;;;;;;;;;;5045413;28;20021;-61
2022/03/30 02:06:37;;;;;;;26.63;13.80;;;;;;;;;;5030464;28;20091;-60
2022/03/30 02:09:23;;;;;;;25.63;14.85;;;;;;;;;;5031312;28;20036;-61
2022/03/30 02:12:08;;;;;;;21.13;13.80;;;;;;;;;;5027481;28;20041;-64
2022/03/30 02:14:53;;;;;;;21.98;13.00;;;;;;;;;;5032018;28;20024;-61
2022/03/30 02:17:39;;;;;;;22.25;14.10;;;;;;;;;;5034999;28;20025;-61
2022/03/30 02:20:25;;;;;;;29.77;14.68;;;;;;;;;;5031997;28;20118;-63
2022/03/30 02:23:10;;;;;;;23.73;13.23;;;;;;;;;;5029932;28;20059;-60
2022/03/30 02:25:55;;;;;;;22.40;13.98;;;;;;;;;;5031690;28;20085;-61
2022/03/30 02:28:41;;;;;;;24.58;14.55;;;;;;;;;;5032624;28;20040;-61
2022/03/30 02:31:26;;;;;;;22.40;13.82;;;;;;;;;;5044188;28;20495;-62
2022/03/30 02:34:11;;;;;;;24.20;14.10;;;;;;;;;;5030676;28;20063;-62
2022/03/30 02:36:57;;;;;;;27.02;15.15;;;;;;;;;;5032214;28;20383;-66
2022/03/30 02:39:42;;;;;;;24.98;13.90;;;;;;;;;;5035005;28;20595;-63
2022/03/30 02:42:27;;;;;;;24.75;14.00;;;;;;;;;;5034993;28;20111;-67
2022/03/30 02:45:12;;;;;;;26.42;14.48;;;;;;;;;;5049959;28;20368;-64
2022/03/30 02:51:04;;;;;;;23.33;14.43;;;;;;;;;;5035553;28;21371;-63
2022/03/30 02:53:49;;;;;;;24.60;13.63;;;;;;;;;;5042028;28;20039;-63
2022/03/30 02:56:34;;;;;;;26.27;14.05;;;;;;;;;;5034287;28;20040;-61
2022/03/30 02:59:20;;;;;;;24.33;14.85;;;;;;;;;;5035706;28;20428;-61
2022/03/30 03:02:05;;;;;;;21.60;14.18;;;;;;;;;;5035028;28;20064;-59
2022/03/30 03:04:51;;;;;;;20.90;13.73;;;;;;;;;;5034498;28;20055;-61
2022/03/30 03:07:36;;;;;;;21.83;13.48;;;;;;;;;;5034060;28;20107;-60
2022/03/30 03:10:21;;;;;;;24.30;15.35;;;;;;;;;;5035703;28;20043;-60
2022/03/30 03:13:07;;;;;;;25.08;13.18;;;;;;;;;;5034671;28;20083;-61
2022/03/30 03:15:52;;;;;;;21.45;13.60;;;;;;;;;;5026415;28;20087;-60
2022/03/30 03:18:37;;;;;;;28.23;15.65;;;;;;;;;;5058887;28;20088;-60
2022/03/30 03:21:22;;;;;;;25.92;13.68;;;;;;;;;;5048744;28;20115;-61
2022/03/30 03:24:08;;;;;;;21.23;13.40;;;;;;;;;;5042943;28;20099;-61
2022/03/30 03:26:53;;;;;;;23.27;13.73;;;;;;;;;;5036483;28;20025;-60
2022/03/30 03:29:38;;;;;;;25.00;13.00;;;;;;;;;;5045292;28;20068;-68
2022/03/30 03:32:24;;;;;;;23.95;13.75;;;;;;;;;;5050575;28;20426;-62
2022/03/30 03:35:09;;;;;;;21.55;13.82;;;;;;;;;;5027314;28;20096;-61
2022/03/30 03:37:55;;;;;;;21.17;13.73;;;;;;;;;;5044307;28;20124;-61
2022/03/30 03:40:40;;;;;;;21.33;13.07;;;;;;;;;;5032504;28;20029;-60
2022/03/30 03:43:25;;;;;;;20.27;13.27;;;;;;;;;;5034539;28;20492;-61
2022/03/30 03:46:11;;;;;;;20.17;13.38;;;;;;;;;;5033188;28;20033;-60
2022/03/30 03:48:56;;;;;;;23.63;14.35;;;;;;;;;;5034354;28;20037;-61
2022/03/30 03:51:41;;;;;;;19.17;12.35;;;;;;;;;;5032891;28;20025;-60
2022/03/30 03:54:26;;;;;;;23.42;14.18;;;;;;;;;;5034917;28;20838;-60
2022/03/30 03:57:11;;;;;;;22.30;13.75;;;;;;;;;;5034071;28;20118;-60
2022/03/30 03:59:57;;;;;;;24.58;13.15;;;;;;;;;;5034358;28;20041;-61
2022/03/30 04:02:42;;;;;;;20.38;13.38;;;;;;;;;;5033668;28;20365;-60
2022/03/30 04:05:27;;;;;;;23.77;13.27;;;;;;;;;;5033999;28;20052;-63
2022/03/30 04:08:12;;;;;;;23.90;13.60;;;;;;;;;;5034370;28;20029;-63
2022/03/30 04:10:58;;;;;;;23.33;15.05;;;;;;;;;;5046737;28;20029;-62
2022/03/30 04:13:43;;;;;;;27.42;15.40;;;;;;;;;;5034366;28;20067;-62
2022/03/30 04:16:28;;;;;;;26.10;13.63;;;;;;;;;;5031257;28;20499;-63
2022/03/30 04:19:15;;;;;;;21.45;14.80;;;;;;;;;;5033381;28;20365;-62
2022/03/30 04:22:01;;;;;;;25.02;14.20;;;;;;;;;;5039837;28;20032;-63
2022/03/30 04:24:46;;;;;;;21.45;13.88;;;;;;;;;;5033146;28;20044;-60
2022/03/30 04:27:32;;;;;;;25.40;14.57;;;;;;;;;;5033260;28;20522;-69
2022/03/30 04:30:18;;;;;;;24.20;14.35;;;;;;;;;;5033234;28;20308;-67
2022/03/30 04:33:03;;;;;;;22.25;14.07;;;;;;;;;;5033762;28;20372;-68
2022/03/30 04:35:48;;;;;;;24.95;14.25;;;;;;;;;;5035837;28;20093;-68
2022/03/30 04:38:34;;;;;;;26.77;13.57;;;;;;;;;;5046870;28;20040;-69
2022/03/30 04:41:19;;;;;;;23.70;14.77;;;;;;;;;;5034977;28;20053;-60
2022/03/30 04:44:05;;;;;;;21.98;13.75;;;;;;;;;;5040690;28;20502;-63
2022/03/30 04:46:50;;;;;;;22.95;15.00;;;;;;;;;;5033502;28;20105;-61
2022/03/30 04:49:35;;;;;;;26.95;15.60;;;;;;;;;;5036499;28;20735;-61
2022/03/30 04:52:20;;;;;;;27.45;16.17;;;;;;;;;;5018866;28;20025;-61
2022/03/30 04:55:06;;;;;;;27.42;13.63;;;;;;;;;;5024977;28;20024;-60
2022/03/30 04:57:51;;;;;;;31.23;14.48;;;;;;;;;;5033962;28;20060;-61
2022/03/30 05:00:37;;;;;;;33.05;13.27;;;;;;;;;;5028588;28;20049;-63
2022/03/30 05:03:22;;;;;;;30.83;13.05;;;;;;;;;;5037073;28;20036;-64
2022/03/30 05:06:07;;;;;;;31.13;13.63;;;;;;;;;;5028071;28;20080;-61
2022/03/30 05:08:52;;;;;;;29.58;13.35;;;;;;;;;;5027516;28;20503;-61
2022/03/30 05:11:39;;;;;;;27.50;14.82;;;;;;;;;;5029188;28;20574;-61
2022/03/30 05:14:24;;;;;;;24.30;13.15;;;;;;;;;;5030420;28;20032;-62
2022/03/30 05:17:10;;;;;;;32.28;14.00;;;;;;;;;;5028922;28;20422;-62
2022/03/30 05:19:55;;;;;;;29.70;15.13;;;;;;;;;;5026998;28;20091;-60
2022/03/30 05:22:40;;;;;;;26.17;12.65;;;;;;;;;;5029044;28;20028;-66
2022/03/30 05:25:26;;;;;;;33.03;14.85;;;;;;;;;;5028672;28;20025;-70
2022/03/30 05:28:11;;;;;;;28.48;13.80;;;;;;;;;;5029102;28;20025;-69
2022/03/30 05:30:56;;;;;;;29.70;13.55;;;;;;;;;;5026310;28;20420;-69
2022/03/30 05:33:42;;;;;;;30.70;15.20;;;;;;;;;;5028814;28;20025;-69
2022/03/30 05:36:27;;;;;;;32.28;14.27;;;;;;;;;;5027584;28;20104;-60
2022/03/30 05:39:12;;;;;;;28.38;14.27;;;;;;;;;;5028078;28;20076;-64
2022/03/30 05:41:57;;;;;;;37.65;15.50;;;;;;;;;;5018373;28;20090;-66
2022/03/30 05:44:43;;;;;;;29.95;14.80;;;;;;;;;;5026493;28;20041;-62
2022/03/30 05:47:28;;;;;;;31.92;15.85;;;;;;;;;;5028873;28;20037;-62
2022/03/30 05:50:14;;;;;;;30.38;14.32;;;;;;;;;;5012346;28;20099;-64
2022/03/30 05:52:59;;;;;;;30.02;14.23;;;;;;;;;;5028524;28;20083;-63
2022/03/30 05:55:44;;;;;;;33.38;13.00;;;;;;;;;;5028970;28;20037;-63
2022/03/30 05:58:30;;;;;;;27.58;15.30;;;;;;;;;;5031213;28;20046;-58
2022/03/30 06:01:15;;;;;;;34.63;14.20;;;;;;;;;;5027935;28;20104;-62
2022/03/30 06:04:01;;;;;;;26.50;13.43;;;;;;;;;;5028514;28;20025;-63
2022/03/30 06:06:46;;;;;;;25.08;13.98;;;;;;;;;;5025446;28;20076;-64
2022/03/30 06:09:33;;;;;;;35.72;15.07;;;;;;;;;;5028204;28;20025;-61
2022/03/30 06:12:19;;;;;;;34.22;15.18;;;;;;;;;;5021437;28;20064;-61
2022/03/30 06:15:04;;;;;;;27.80;15.13;;;;;;;;;;5028199;28;20391;-65
2022/03/30 06:17:53;;;;;;;29.00;13.20;;;;;;;;;;5027229;28;20032;-68
2022/03/30 06:20:39;;;;;;;27.55;16.50;;;;;;;;;;5020220;28;20095;-67
2022/03/30 06:23:24;;;;;;;28.90;14.93;;;;;;;;;;5026798;28;20488;-67
2022/03/30 06:26:10;;;;;;;34.55;16.77;;;;;;;;;;5015414;28;20528;-69
2022/03/30 06:28:55;;;;;;;28.88;14.57;;;;;;;;;;5026642;28;20033;-66
2022/03/30 06:31:40;;;;;;;34.95;16.63;;;;;;;;;;5010782;28;20036;-61
2022/03/30 06:34:25;;;;;;;29.27;14.07;;;;;;;;;;5028291;28;20041;-66
2022/03/30 06:37:11;;;;;;;27.45;14.38;;;;;;;;;;5026551;28;20037;-61
2022/03/30 06:39:56;;;;;;;29.48;13.93;;;;;;;;;;5027874;28;20056;-60
2022/03/30 06:42:44;;;;;;;31.80;14.85;;;;;;;;;;5027211;28;20045;-60
2022/03/30 06:45:29;;;;;;;31.63;15.98;;;;;;;;;;5028342;28;20037;-60
2022/03/30 06:48:14;;;;;;;30.58;16.40;;;;;;;;;;5023114;28;20032;-62
2022/03/30 06:51:00;;;;;;;24.27;14.23;;;;;;;;;;5028513;28;20026;-61
2022/03/30 06:53:45;;;;;;;34.83;16.95;;;;;;;;;;5036653;28;20097;-68
2022/03/30 06:56:31;;;;;;;29.75;15.32;;;;;;;;;;5033429;28;20388;-68
2022/03/30 06:59:18;;;;;;;32.90;15.95;;;;;;;;;;5026606;28;20045;-66
2022/03/30 07:02:03;;;;;;;28.33;16.80;;;;;;;;;;5013940;28;20018;-66
2022/03/30 07:04:48;;;;;;;29.27;14.55;;;;;;;;;;5027227;28;20030;-65
2022/03/30 07:10:38;;;;;;;35.58;16.23;;;;;;;;;;5015962;28;20037;-68
2022/03/30 07:13:23;;;;;;;29.75;15.55;;;;;;;;;;5025751;28;20022;-61
2022/03/30 07:16:08;;;;;;;33.85;15.05;;;;;;;;;;5027979;28;20029;-62
2022/03/30 07:18:54;;;;;;;31.45;16.58;;;;;;;;;;5026814;28;20048;-61
2022/03/30 07:21:39;;;;;;;29.55;15.60;;;;;;;;;;5027456;28;20044;-61
2022/03/30 07:24:25;;;;;;;28.67;15.60;;;;;;;;;;5026942;28;20116;-63
2022/03/30 07:27:10;;;;;;;32.42;16.38;;;;;;;;;;5031804;28;20033;-69
2022/03/30 07:29:55;;;;;;;25.42;14.77;;;;;;;;;;5030586;28;20061;-62
2022/03/30 07:32:42;;;;;;;35.13;15.80;;;;;;;;;;5031487;28;20132;-60
2022/03/30 07:35:28;;;;;;;26.80;16.08;;;;;;;;;;5030186;28;20072;-60
2022/03/30 07:38:14;;;;;;;28.75;14.50;;;;;;;;;;5043580;28;20025;-62
2022/03/30 07:41:00;;;;;;;39.50;16.50;;;;;;;;;;5030295;28;20029;-61
2022/03/30 07:43:45;;;;;;;29.80;15.35;;;;;;;;;;5031389;28;20113;-62
2022/03/30 07:46:31;;;;;;;28.52;15.55;;;;;;;;;;5030289;28;20416;-61
2022/03/30 07:49:16;;;;;;;28.42;15.30;;;;;;;;;;5036506;28;20025;-70
2022/03/30 07:52:03;;;;;;;28.42;16.15;;;;;;;;;;5009822;28;20346;-72
2022/03/30 07:54:48;;;;;;;27.98;14.90;;;;;;;;;;5016217;28;20022;-70
2022/03/30 07:57:36;;;;;;;25.20;13.23;;;;;;;;;;5031385;28;20037;-69
2022/03/30 08:00:22;;;;;;;25.90;14.32;;;;;;;;;;5030049;28;20059;-71
2022/03/30 08:03:08;;;;;;;30.38;15.95;;;;;;;;;;5030399;28;20036;-69
2022/03/30 08:05:53;;;;;;;24.20;14.35;;;;;;;;;;5033689;28;20064;-63
2022/03/30 08:08:39;;;;;;;30.48;14.18;;;;;;;;;;5050715;28;20479;-62
2022/03/30 08:11:24;;;;;;;26.58;12.88;;;;;;;;;;5044213;28;20079;-59
2022/03/30 08:14:11;;;;;;;30.42;15.30;;;;;;;;;;5018761;28;20079;-62
2022/03/30 08:16:56;;;;;;;30.40;13.77;;;;;;;;;;5035569;28;20025;-61
2022/03/30 08:19:41;;;;;;;27.60;15.00;;;;;;;;;;5039770;28;20041;-60
2022/03/30 08:22:27;;;;;;;24.55;12.60;;;;;;;;;;5048863;28;20056;-68
2022/03/30 08:25:13;;;;;;;27.15;13.35;;;;;;;;;;5036303;28;20480;-67
2022/03/30 08:27:58;;;;;;;26.60;12.52;;;;;;;;;;5046213;28;20124;-68
2022/03/30 08:30:43;;;;;;;29.08;14.25;;;;;;;;;;5014675;28;20027;-68
2022/03/30 08:33:29;;;;;;;27.33;13.55;;;;;;;;;;5034090;28;20036;-68
2022/03/30 08:36:16;;;;;;;28.95;13.05;;;;;;;;;;5034265;28;20025;-67
2022/03/30 08:39:05;;;;;;;30.88;14.18;;;;;;;;;;5022014;28;20075;-68
2022/03/30 08:41:50;;;;;;;27.23;13.73;;;;;;;;;;5035162;28;20024;-68
2022/03/30 08:44:36;;;;;;;26.40;13.10;;;;;;;;;;5035760;28;20040;-60
2022/03/30 08:47:22;;;;;;;29.98;13.85;;;;;;;;;;5041939;28;20082;-61
2022/03/30 08:50:07;;;;;;;28.08;14.57;;;;;;;;;;5033002;28;20495;-60
2022/03/30 08:52:55;;;;;;;26.70;13.07;;;;;;;;;;5033810;28;20029;-63
2022/03/30 08:55:41;;;;;;;32.72;13.73;;;;;;;;;;5046294;28;20091;-64
2022/03/30 08:58:26;;;;;;;28.90;14.63;;;;;;;;;;5033522;28;20036;-61
2022/03/30 09:01:12;;;;;;;29.88;13.15;;;;;;;;;;5021762;28;20387;-60
2022/03/30 09:03:57;;;;;;;29.25;15.68;;;;;;;;;;5032491;28;20029;-63
2022/03/30 09:06:47;;;;;;;27.45;14.02;;;;;;;;;;5045844;28;20049;-57
2022/03/30 09:09:33;;;;;;;28.40;13.27;;;;;;;;;;5033549;28;20059;-59
2022/03/30 09:12:25;;;;;;;29.27;12.52;;;;;;;;;;5033987;28;20044;-60
2022/03/30 09:15:12;;;;;;;29.08;13.80;;;;;;;;;;5037863;28;20052;-58
2022/03/30 09:17:58;;;;;;;32.50;13.65;;;;;;;;;;5032637;28;20037;-69
2022/03/30 09:20:47;;;;;;;26.02;12.00;;;;;;;;;;5045355;28;20105;-57
2022/03/30 09:23:32;;;;;;;29.60;11.20;;;;;;;;;;5042524;28;20037;-59
2022/03/30 09:26:18;;;;;;;26.05;11.82;;;;;;;;;;5034642;28;20387;-62
2022/03/30 09:29:04;;;;;;;29.48;12.35;;;;;;;;;;5033593;28;20056;-62
2022/03/30 09:31:50;;;;;;;30.58;12.95;;;;;;;;;;5047832;28;20083;-59
2022/03/30 09:34:48;;;;;;;22.60;12.82;;;;;;;;;;5024487;28;20071;-59
2022/03/30 09:37:34;;;;;;;24.33;12.68;;;;;;;;;;5035272;28;20079;-59
2022/03/30 09:40:19;;;;;;;28.00;11.30;;;;;;;;;;5033557;28;20032;-68
2022/03/30 09:43:12;;;;;;;27.45;11.52;;;;;;;;;;5050948;28;20040;-68
2022/03/30 09:46:05;;;;;;;26.40;12.32;;;;;;;;;;5027827;28;20041;-68
2022/03/30 09:48:51;;;;;;;31.05;11.80;;;;;;;;;;5052962;28;20533;-68
2022/03/30 09:51:36;;;;;;;33.33;12.23;;;;;;;;;;5014726;28;20098;-69
2022/03/30 09:54:37;;;;;;;25.65;12.52;;;;;;;;;;5039215;28;20379;-60
2022/03/30 09:57:24;;;;;;;28.63;12.13;;;;;;;;;;5034288;28;20021;-71
2022/03/30 10:00:12;;;;;;;29.50;11.27;;;;;;;;;;5033660;28;20052;-69
2022/03/30 10:02:57;;;;;;;27.17;11.18;;;;;;;;;;5047693;28;20436;-69
2022/03/30 10:05:43;;;;;;;29.83;11.10;;;;;;;;;;5037757;28;20102;-69
2022/03/30 10:08:28;;;;;;;26.63;11.35;;;;;;;;;;5033980;28;20427;-70
2022/03/30 10:11:16;;;;;;;23.55;12.40;;;;;;;;;;5049571;28;20039;-71
2022/03/30 10:14:03;;;;;;;24.42;10.40;;;;;;;;;;5044482;28;20043;-68
2022/03/30 10:16:49;;;;;;;29.58;11.40;;;;;;;;;;5047529;28;20099;-60
2022/03/30 10:19:34;;;;;;;32.22;11.30;;;;;;;;;;5033023;28;20163;-63
2022/03/30 10:22:39;;;;;;;28.73;11.55;;;;;;;;;;5032883;28;20033;-60
2022/03/30 10:25:43;;;;;;;25.27;11.27;;;;;;;;;;5027596;28;20116;-61
2022/03/30 10:28:31;;;;;;;22.63;10.68;;;;;;;;;;5033049;28;20067;-60
2022/03/30 10:31:20;;;;;;;28.25;10.50;;;;;;;;;;5032955;28;20170;-61
2022/03/30 10:34:27;;;;;;;25.15;10.70;;;;;;;;;;5038054;28;20132;-68
2022/03/30 10:37:12;;;;;;;25.83;11.40;;;;;;;;;;5030458;28;20052;-63
2022/03/30 10:39:57;;;;;;;26.13;11.50;;;;;;;;;;5033425;28;20047;-59
2022/03/30 10:42:46;;;;;;;27.42;11.88;;;;;;;;;;5032863;28;20025;-60
2022/03/30 10:45:33;;;;;;;23.27;10.45;;;;;;;;;;5021578;28;20031;-59
2022/03/30 10:48:19;;;;;;;30.02;10.65;;;;;;;;;;5032540;28;20032;-59
2022/03/30 10:51:07;;;;;;;20.40;9.02;;;;;;;;;;5034044;28;20048;-60
2022/03/30 10:53:53;;;;;;;27.23;11.88;;;;;;;;;;5033671;28;20455;-61
2022/03/30 10:56:47;;;;;;;27.05;11.32;;;;;;;;;;5054331;28;20024;-60
2022/03/30 10:59:32;;;;;;;22.95;11.95;;;;;;;;;;5055215;28;20418;-62
2022/03/30 11:02:17;;;;;;;21.55;10.50;;;;;;;;;;5051660;28;20020;-59
2022/03/30 11:05:09;;;;;;;19.85;9.82;;;;;;;;;;5036625;28;20025;-61
2022/03/30 11:07:55;;;;;;;22.48;11.15;;;;;;;;;;5023913;28;20451;-60
2022/03/30 11:10:44;;;;;;;20.13;10.05;;;;;;;;;;5037619;28;20095;-64
2022/03/30 11:13:30;;;;;;;25.05;10.35;;;;;;;;;;5034373;28;20051;-60
2022/03/30 11:16:15;;;;;;;33.05;10.77;;;;;;;;;;5036705;28;20411;-62
2022/03/30 11:19:02;;;;;;;24.45;9.75;;;;;;;;;;5043388;28;20060;-61
2022/03/30 11:21:55;;;;;;;20.13;10.52;;;;;;;;;;5036869;28;20549;-61
2022/03/30 11:24:41;;;;;;;22.40;10.02;;;;;;;;;;5047831;28;20096;-62
2022/03/30 11:27:27;;;;;;;23.88;10.32;;;;;;;;;;5033079;28;20021;-61
2022/03/30 11:30:13;;;;;;;28.52;10.60;;;;;;;;;;5043233;28;20097;-62
2022/03/30 11:33:19;;;;;;;22.00;9.40;;;;;;;;;;5021796;28;20013;-61
2022/03/30 11:36:04;;;;;;;22.10;10.43;;;;;;;;;;5053433;28;20040;-61
2022/03/30 11:38:53;;;;;;;19.77;8.60;;;;;;;;;;5037584;28;20037;-61
2022/03/30 11:41:38;;;;;;;24.75;10.07;;;;;;;;;;5035027;28;20440;-62
2022/03/30 11:47:29;;;;;;;22.52;10.90;;;;;;;;;;5054132;28;20024;-63
2022/03/30 11:50:20;;;;;;;19.88;10.73;;;;;;;;;;5036365;28;20102;-70
2022/03/30 11:53:07;;;;;;;23.13;12.43;;;;;;;;;;5044384;28;20025;-70
2022/03/30 11:55:53;;;;;;;23.40;11.70;;;;;;;;;;5029589;28;20041;-71
2022/03/30 11:58:40;;;;;;;21.67;11.90;;;;;;;;;;5029341;28;20046;-71
2022/03/30 12:01:25;;;;;;;19.77;11.18;;;;;;;;;;5037090;28;20367;-70
2022/03/30 12:04:12;;;;;;;26.95;13.68;;;;;;;;;;5052503;28;20039;-61
2022/03/30 12:06:57;;;;;;;22.73;11.70;;;;;;;;;;5017673;28;20064;-62
2022/03/30 12:09:46;;;;;;;25.42;15.20;;;;;;;;;;5040703;28;20474;-61
2022/03/30 12:12:35;;;;;;;21.00;14.45;;;;;;;;;;5058457;28;20029;-62
2022/03/30 12:15:20;;;;;;;23.77;12.55;;;;;;;;;;5039393;28;20021;-61
2022/03/30 12:18:06;;;;;;;27.17;14.38;;;;;;;;;;5035086;28;20033;-61
2022/03/30 12:20:51;;;;;;;19.85;12.85;;;;;;;;;;5021430;28;20174;-62
2022/03/30 12:23:37;;;;;;;24.75;14.50;;;;;;;;;;5031574;28;20404;-62
2022/03/30 12:26:23;;;;;;;27.05;14.95;;;;;;;;;;5033218;28;20039;-71
2022/03/30 12:29:09;;;;;;;22.33;13.68;;;;;;;;;;5035032;28;20027;-69
2022/03/30 12:31:57;;;;;;;22.38;13.95;;;;;;;;;;5047789;28;20033;-69
2022/03/30 12:34:43;;;;;;;23.15;13.35;;;;;;;;;;5034816;28;20383;-70
2022/03/30 12:37:28;;;;;;;21.77;14.52;;;;;;;;;;5056852;28;20119;-70
2022/03/30 12:40:19;;;;;;;24.45;13.60;;;;;;;;;;5033463;28;20040;-69
2022/03/30 12:43:05;;;;;;;22.77;13.48;;;;;;;;;;5038676;28;20479;-60
2022/03/30 12:46:01;;;;;;;15.98;11.05;;;;;;;;;;5034456;28;20028;-63
2022/03/30 12:48:47;;;;;;;11.85;7.70;;;;;;;;;;5042309;28;20025;-60
2022/03/30 12:51:33;;;;;;;12.55;7.78;;;;;;;;;;5038736;28;20037;-60
2022/03/30 12:54:21;;;;;;;10.57;6.88;;;;;;;;;;5055022;28;20016;-61
2022/03/30 12:57:07;;;;;;;10.85;7.05;;;;;;;;;;5031824;28;20032;-61
2022/03/30 12:59:52;;;;;;;8.95;6.20;;;;;;;;;;5047639;28;20041;-60
2022/03/30 13:02:37;;;;;;;8.23;6.00;;;;;;;;;;5035553;28;20035;-59
2022/03/30 13:05:27;;;;;;;7.90;5.60;;;;;;;;;;5051943;28;20280;-60
2022/03/30 13:08:12;;;;;;;8.45;5.60;;;;;;;;;;5041017;28;20072;-60
2022/03/30 13:11:00;;;;;;;6.63;5.53;;;;;;;;;;5034518;28;20036;-61
2022/03/30 13:13:48;;;;;;;7.90;4.70;;;;;;;;;;5045235;28;20028;-60
2022/03/30 13:16:33;;;;;;;6.32;4.68;;;;;;;;;;5036577;28;20024;-63
2022/03/30 13:19:22;;;;;;;8.73;5.57;;;;;;;;;;5036557;28;20040;-62
2022/03/30 13:22:07;;;;;;;7.35;4.80;;;;;;;;;;5040876;28;20320;-61
2022/03/30 13:24:54;;;;;;;7.50;5.50;;;;;;;;;;5033351;28;20472;-59
2022/03/30 13:27:40;;;;;;;8.23;5.50;;;;;;;;;;5031140;28;20116;-59
2022/03/30 13:30:26;;;;;;;9.05;6.07;;;;;;;;;;5044201;28;20083;-62
2022/03/30 13:33:12;;;;;;;7.22;5.50;;;;;;;;;;5028939;28;20027;-59
2022/03/30 13:35:57;;;;;;;9.75;5.30;;;;;;;;;;5065555;28;20032;-68
2022/03/30 13:38:43;;;;;;;8.63;6.03;;;;;;;;;;5038891;28;20067;-68
2022/03/30 13:41:29;;;;;;;7.45;5.32;;;;;;;;;;5033927;28;20025;-70
2022/03/30 13:44:14;;;;;;;8.43;5.50;;;;;;;;;;5018238;28;20661;-67
2022/03/30 13:47:00;;;;;;;6.95;5.22;;;;;;;;;;5030241;28;20032;-72
2022/03/30 13:49:47;;;;;;;7.75;4.70;;;;;;;;;;5025232;28;20063;-68
2022/03/30 13:52:32;;;;;;;8.02;5.70;;;;;;;;;;5033710;28;20045;-68
2022/03/30 13:55:17;;;;;;;9.18;5.88;;;;;;;;;;5045256;28;20052;-73
2022/03/30 13:58:04;;;;;;;8.30;5.50;;;;;;;;;;5040378;28;20025;-60
2022/03/30 14:00:50;;;;;;;8.60;5.88;;;;;;;;;;5031409;28;20290;-62
2022/03/30 14:03:37;;;;;;;10.93;7.03;;;;;;;;;;5033454;28;20049;-64
2022/03/30 14:06:23;;;;;;;8.60;7.15;;;;;;;;;;5036731;28;20505;-60
2022/03/30 14:09:08;;;;;;;7.93;6.05;;;;;;;;;;5004213;28;20042;-60
2022/03/30 14:11:53;;;;;;;9.02;6.75;;;;;;;;;;5038658;28;20047;-68
2022/03/30 14:14:38;;;;;;;10.57;6.32;;;;;;;;;;5026509;28;20392;-61
2022/03/30 14:17:24;;;;;;;8.20;6.03;;;;;;;;;;5047606;28;20083;-60
2022/03/30 14:20:09;;;;;;;9.50;5.80;;;;;;;;;;5025711;28;20037;-64
2022/03/30 14:22:54;;;;;;;7.43;5.30;;;;;;;;;;5038253;28;20123;-61
2022/03/30 14:25:40;;;;;;;8.05;4.90;;;;;;;;;;5014875;28;20120;-63
2022/03/30 14:28:26;;;;;;;9.98;5.30;;;;;;;;;;5040639;28;20037;-61
2022/03/30 14:31:11;;;;;;;8.63;6.13;;;;;;;;;;5011338;28;20028;-62
2022/03/30 14:33:56;;;;;;;9.88;5.95;;;;;;;;;;5006933;28;20365;-62
2022/03/30 14:36:42;;;;;;;9.50;6.60;;;;;;;;;;5031483;28;20065;-60
2022/03/30 14:39:27;;;;;;;8.57;6.43;;;;;;;;;;5060591;28;20033;-62
2022/03/30 14:42:12;;;;;;;9.80;5.85;;;;;;;;;;5038249;28;20029;-64
2022/03/30 14:44:57;;;;;;;10.02;6.90;;;;;;;;;;5028110;28;20127;-61
2022/03/30 14:47:43;;;;;;;11.05;7.20;;;;;;;;;;5030779;28;20036;-61
2022/03/30 14:50:29;;;;;;;12.15;7.45;;;;;;;;;;5025871;28;20033;-65
2022/03/30 14:53:14;;;;;;;11.65;7.53;;;;;;;;;;5042872;28;20435;-62
2022/03/30 14:55:59;;;;;;;9.60;6.90;;;;;;;;;;5025984;28;20502;-62
2022/03/30 14:58:44;;;;;;;9.75;7.25;;;;;;;;;;5030944;28;20049;-62
2022/03/30 15:01:30;;;;;;;11.30;7.57;;;;;;;;;;5025510;28;20029;-62
2022/03/30 15:04:15;;;;;;;11.50;8.15;;;;;;;;;;5034228;28;20427;-62
2022/03/30 15:07:00;;;;;;;12.98;9.60;;;;;;;;;;5018657;28;20053;-72
2022/03/30 15:09:45;;;;;;;14.35;10.50;;;;;;;;;;5027268;28;20080;-61
2022/03/30 15:12:31;;;;;;;14.15;9.02;;;;;;;;;;5021323;28;20032;-62
2022/03/30 15:15:16;;;;;;;12.43;9.15;;;;;;;;;;5026546;28;20472;-61
2022/03/30 15:18:01;;;;;;;14.25;9.68;;;;;;;;;;5025815;28;20022;-63
2022/03/30 15:20:47;;;;;;;12.27;9.55;;;;;;;;;;5027737;28;20065;-62
2022/03/30 15:23:32;;;;;;;13.07;10.02;;;;;;;;;;5025260;28;20509;-64
2022/03/30 15:26:18;;;;;;;15.75;9.43;;;;;;;;;;5028537;28;20051;-64
2022/03/30 15:29:03;;;;;;;15.55;11.60;;;;;;;;;;5031723;28;20025;-63
2022/03/30 15:31:49;;;;;;;16.35;12.05;;;;;;;;;;5036255;28;20560;-60
2022/03/30 15:34:35;;;;;;;18.10;13.05;;;;;;;;;;5028165;28;20037;-62
2022/03/30 15:37:21;;;;;;;16.45;12.43;;;;;;;;;;5022525;28;20256;-61
2022/03/30 15:40:06;;;;;;;16.25;12.00;;;;;;;;;;5027636;28;20041;-62
2022/03/30 15:42:52;;;;;;;15.40;12.10;;;;;;;;;;5016529;28;20025;-60
2022/03/30 15:45:38;;;;;;;18.33;14.07;;;;;;;;;;5020075;28;20033;-63
2022/03/30 15:48:23;;;;;;;16.13;11.75;;;;;;;;;;5025009;28;20029;-70
2022/03/30 15:51:10;;;;;;;19.35;14.32;;;;;;;;;;5022874;28;20500;-71
2022/03/30 15:53:56;;;;;;;20.85;15.70;;;;;;;;;;5016722;28;20432;-70
2022/03/30 15:56:41;;;;;;;19.80;13.60;;;;;;;;;;5014662;28;20030;-70
2022/03/30 15:59:26;;;;;;;18.42;14.52;;;;;;;;;;5020416;28;20048;-71
2022/03/30 16:02:13;;;;;;;19.73;14.75;;;;;;;;;;5031101;28;20029;-62
2022/03/30 16:04:58;;;;;;;17.85;13.55;;;;;;;;;;5020589;28;20041;-69
2022/03/30 16:12:09;;;;;;;21.08;14.25;;;;;;;;;;5036983;28;20469;-60
2022/03/30 16:13:52;;;;;;;22.73;15.00;;;;;;;;;;5025268;28;20029;-62
2022/03/30 16:16:40;;;;;;;21.48;15.13;;;;;;;;;;5028064;28;20120;-64
2022/03/30 16:19:25;;;;;;;21.95;15.65;;;;;;;;;;5025057;28;20041;-62
2022/03/30 16:22:10;;;;;;;19.67;15.38;;;;;;;;;;5021811;28;20037;-60
2022/03/30 16:24:56;;;;;;;21.65;15.45;;;;;;;;;;5024688;28;20061;-61
2022/03/30 16:27:42;;;;;;;21.25;15.73;;;;;;;;;;5021392;28;20030;-61